Impacts TAF Board
For situational awareness. Not to be used for flight planning purposes.
IDs:

KDTW - Detroit Metro/Wayne, MI, US

Issued at 0222 UTC 10 Dec 2022
Updated at 0315 UTC 10 Dec 2022
Potential Impact None Slight Moderate High
Time0253Z 10/04Z 10/05Z 10/06Z 10/07Z 10/08Z 10/09Z 10/10Z 10/11Z 10/12Z 10/13Z 10/14Z 10/15Z 10/16Z>>
Type OBS PRVL PRVL PRVL PRVL PRVL PRVL PRVL PRVL PRVL PRVL PRVL PRVL PRVL
VIS 10 >6 >6 >6 >6 >6 >6 >6 >6 >6 >6 >6 >6 >6
CIG 21 15 15 15 15 15 15 15 15 20 20 20 20 20
Cover OVC OVC OVC OVC OVC OVC OVC OVC OVC BKN BKN BKN BKN BKN
FltCat MVFR MVFR MVFR MVFR MVFR MVFR MVFR MVFR MVFR MVFR MVFR MVFR MVFR MVFR
WX -- -- -- -- -- -- -- -- -- -- -- -- -- --
WDir 60 80 80 80 80 80 80 80 80 70 70 70 70 70
WSpd 13 10 10 10 10 10 10 10 10 9 9 9 9 9
WGst 23 15 15 15 15 15 15 15 15 -- -- -- -- --
WSHgt -- -- -- -- -- -- -- -- -- -- -- -- -- --
WSDir -- -- -- -- -- -- -- -- -- -- -- -- -- --
WSSpd -- -- -- -- -- -- -- -- -- -- -- -- -- --
Raw TAF
KDTW 100222Z 1002/1106 05010G16KT P6SM OVC022
  TEMPO 1002/1004 2SM -SNRA OVC010
  FM100400 08010G15KT P6SM OVC015
  FM101200 07009KT P6SM BKN020
  FM101800 08011KT P6SM OVC035
  FM102200 08004KT P6SM OVC012


Raw METAR
KDTW 100253Z 06013G23KT 10SM OVC021 02/M03 A3027 RMK AO2 SNE23 SLP256 T00171033 50000 PNO
KDTW 100223Z 06016KT 10SM OVC022 02/M03 A3027 RMK AO2 SNE23 T00171033 PNO
KDTW 100153Z 06018G25KT 9SM -SN OVC022 02/M03 A3027 RMK AO2 SNB48 SLP257 T00171033 PNO
KDTW 100148Z 07016G22KT 9SM -SN OVC022 02/M03 A3026 RMK AO2 SNB48 PNO
KDTW 100053Z 07015G22KT 10SM OVC023 02/M03 A3027 RMK AO2 SLP257 T00221033 PNO

METAR Board
Radar Display
Forecast Discussion
For situational awareness. Not to be used for flight planning purposes.